• Join FlightAware (Why Join?)
  • Login
  • US Flag 
10:08PM EST


 

Airport Tracker/Info


-or-


 

Live Flight TrackerFlight Track Log ✈ EJA396 ✈ 15-Dec-2013 ✈ KCLE - KBOS

Flight Track Log - Related Links

Times and Time Zones

All times are in EST time to prevent confusion due to time zone crossing. See the EJA396 flight status page for this flight to view local times or setup timezone preferences in your user account.

Time Position Orientation Groundspeed Altitude Reporting Facility
EST Latitude Longitude Course Direction KTS MPH feet Rate Location/Type
06:34PM 41.4028 -81.8606 265° West 124 143 1,700  Level Cleveland Center
06:34PM 41.4011 -81.8844 265° West 147 169 2,800 2,580 Climbing Cleveland Center
06:35PM 41.4008 -81.9272 270° West 186 214 4,600 3,180 Climbing Cleveland Center
06:35PM 41.4222 -81.9558 315° West 198 228 6,100 2,700 Climbing Cleveland Center
06:36PM 41.4539 -81.9442 15° North 297 342 7,400 2,700 Climbing Cleveland Center
06:36PM 41.4858 -81.8944 49° Northeast 287 330 8,900 2,880 Climbing Cleveland Center
06:37PM 41.5517 -81.8044 46° Northeast 336 387 12,000 3,060 Climbing Cleveland Center
06:38PM 41.6283 -81.7025 45° Northeast 378 435 15,300 3,120 Climbing Cleveland Center
06:39PM 41.7033 -81.6019 45° Northeast 379 436 18,500 2,700 Climbing Cleveland Center
06:40PM 41.7806 -81.4978 45° Northeast 385 443 21,000 2,160 Climbing Cleveland Center
06:42PM 41.8447 -81.3722 56° Northeast 420 483 23,000 1,140 Climbing Cleveland Center
06:43PM 41.8736 -81.1981 77° East 471 542 23,400 960 Climbing Cleveland Center
06:44PM 41.9022 -81.0194 78° East 483 556 25,000 1,680 Climbing Cleveland Center
06:45PM 41.9372 -80.8008 78° East 506 582 26,900 1,680 Climbing Cleveland Center
06:46PM 41.9897 -80.6183 69° East 518 596 28,500 1,500 Climbing Cleveland Center
06:47PM 42.0442 -80.4383 68° East 516 594 30,100 1,500 Climbing Cleveland Center
06:48PM 42.1003 -80.2583 67° East 518 596 31,700 1,500 Climbing Cleveland Center
06:49PM 42.1583 -80.0808 66° East 513 590 33,300 1,560 Climbing Cleveland Center
06:50PM 42.2253 -79.8819 66° East 509 586 35,000 780 Climbing Cleveland Center
06:51PM 42.2808 -79.7042 67° East 515 593 35,000  Level Cleveland Center
06:52PM 42.3317 -79.5167 70° East 531 611 35,000  Level Cleveland Center
06:53PM 42.3533 -79.3164 82° East 538 619 35,000  Level Cleveland Center
06:54PM 42.3731 -79.1158 82° East 540 621 35,000  Level Cleveland Center
06:55PM 42.3906 -78.9189 83° East 530 610 35,000  Level Cleveland Center
06:56PM 42.4089 -78.7161 83° East 523 602 35,000  Level Cleveland Center
06:57PM 42.4294 -78.4839 83° East 519 597 35,000  Level Cleveland Center
06:58PM 42.4469 -78.2911 83° East 520 598 35,000  Level Cleveland Center
06:59PM 42.4633 -78.0964 83° East 522 601 35,000  Level Cleveland Center
07:00PM 42.4800 -77.9019 83° East 523 602 35,000  Level Cleveland Center
07:01PM 42.4972 -77.7028 83° East 528 608 35,000  Level Cleveland Center
07:02PM 42.5133 -77.5064 84° East 527 606 35,000  Level Cleveland Center
07:03PM 42.5294 -77.2883 84° East 521 600 35,000  Level Cleveland Center
07:04PM 42.5450 -77.0933 84° East 524 603 35,000  Level Cleveland Center
07:05PM 42.5600 -76.8961 84° East 527 606 35,000  Level Cleveland Center
07:06PM 42.5744 -76.6997 84° East 526 605 35,000  Level Boston Center
07:07PM 42.5883 -76.5036 84° East 525 604 35,000  Level Boston Center
07:08PM 42.6056 -76.2706 84° East 519 597 35,000  Level Boston Center
07:09PM 42.6169 -76.1017 85° East 518 596 35,000  Level Boston Center
07:10PM 42.6300 -75.9092 85° East 514 592 35,000  Level Boston Center
07:11PM 42.6453 -75.6761 85° East 521 600 35,000  Level Boston Center
07:12PM 42.6572 -75.4761 85° East 534 615 35,000  Level Boston Center
07:13PM 42.6697 -75.2756 85° East 539 620 35,000  Level Boston Center
07:14PM 42.6806 -75.0753 86° East 539 620 35,000  Level Boston Center
07:15PM 42.6917 -74.8783 86° East 530 610 35,000  Level Boston Center
07:17PM 42.7044 -74.6789 85° East 533 613 35,000 -240 Level Boston Center
07:18PM 42.7150 -74.4908 86° East 503 579 34,600 -1,980 Descending Boston Center
07:19PM 42.7247 -74.3047 86° East 494 568 31,000 -1,860 Descending Boston Center
07:20PM 42.7350 -74.0897 86° East 480 552 30,900 -840 Descending Boston Center
07:21PM 42.7408 -73.9350 87° East 472 543 29,400 -960 Descending Boston Center
07:22PM 42.7425 -73.7608 89° East 461 531 29,000 -240 Descending Boston Center
07:23PM 42.7258 -73.5958 98° East 443 510 29,000  Level Boston Center
07:24PM 42.7078 -73.4217 98° East 461 531 29,000  Level Boston Center
07:25PM 42.6842 -73.2053 98° East 480 552 29,000 -600 Level Boston Center
07:26PM 42.6642 -73.0283 99° East 471 542 27,900 -1,800 Descending Boston Center
07:27PM 42.6464 -72.8625 98° East 445 512 25,400 -2,520 Descending Boston Center
07:28PM 42.6483 -72.6983 89° East 448 516 22,900 -2,040 Descending Boston Center
07:29PM 42.7250 -72.5772 49° Northeast 406 467 21,200 -1,440 Descending Boston Center
07:30PM 42.7725 -72.4450 64° Northeast 406 467 20,000 -1,320 Descending Boston Center
07:31PM 42.7433 -72.3117 107° East 382 440 18,600 -1,380 Descending Boston Center
07:32PM 42.7006 -72.1797 114° Southeast 364 419 17,300 -1,440 Descending Boston Center
07:33PM 42.6550 -72.0483 115° Southeast 358 412 15,800 -1,380 Descending Boston Center
07:34PM 42.6144 -71.9283 115° Southeast 354 407 14,500 -1,260 Descending Boston Center
07:35PM 42.5742 -71.8103 115° Southeast 348 400 13,200 -1,320 Descending Boston Center
07:36PM 42.5342 -71.6939 115° Southeast 343 395 11,900 -1,080 Descending Boston Center
07:37PM 42.5022 -71.5733 110° East 319 367 11,100 -420 Descending Boston Center
07:38PM 42.4922 -71.4689 97° East 285 328 11,100 -120 Level Boston Center
07:38PM 42.4833 -71.4000 100° East 285 328 11,000 -360 Descending KA90
07:39PM 42.4833 -71.2833 90° East 301 346 10,600 -960 Descending KA90
07:41PM 42.4667 -71.1667 101° East 284 327 9,000 -1,500 Descending KA90
07:41PM 42.4500 -71.1000 109° East 271 312 7,900 -1,140 Descending KA90
07:42PM 42.4500 -71.0000 90° East 253 291 7,100 -420 Descending KA90
07:43PM 42.4500 -70.9167 90° East 240 276 7,100 -420 Level KA90
07:44PM 42.4667 -70.8167 77° East 245 282 6,300 -660 Descending KA90
07:45PM 42.4728 -70.7678 80° East 244 281 6,000 -300 Descending Boston Center
07:46PM 42.4858 -70.6831 78° East 238 274 5,900 -660 Descending Boston Center
07:47PM 42.4989 -70.6028 78° East 225 259 4,700 -960 Descending Boston Center
07:48PM 42.4814 -70.5372 110° East 230 265 4,000 -360 Descending Boston Center
07:49PM 42.4372 -70.5547 196° South 197 227 4,000  Level Boston Center
07:50PM 42.4256 -70.6247 257° West 169 194 4,000 -540 Level Boston Center
07:51PM 42.4175 -70.6792 259° West 157 181 3,000 -540 Descending Boston Center
07:52PM 42.4075 -70.7311 255° West 150 173 3,000  Level Boston Center
07:53PM 42.3989 -70.7817 257° West 144 166 3,000 -300 Level Boston Center
07:54PM 42.3889 -70.8356 256° West 140 161 2,400 -720 Descending Boston Center
07:55PM 42.3797 -70.8875 257° West 142 163 1,600 -660 Descending Boston Center
07:56PM 42.3719 -70.9275 255° West 115 132 1,100 -600 Descending Boston Center
07:57PM 42.3664 -70.9594 257° West 98 113 500 -420 Descending Boston Center
07:58PM 42.3608 -71.0053 261° West 100 115 300 -240 Descending Boston Center